Time;durP1;ratioP1;P1;durP2;ratioP2;P2;SDS_P1;SDS_P2;PMS_P1;PMS_P2;Temp;Humidity;BMP_temperature;BMP_pressure;BME280_temperature;BME280_humidity;BME280_pressure;Samples;Min_cycle;Max_cycle;Signal;HPM_P1;HPM_P2
2024/01/07 00:03:30;;;;;;;1.98;0.50;;;;;;;;;;5036351;28;20033;-77
2024/01/07 00:07:12;;;;;;;0.50;0.40;;;;;;;;;;5026998;28;20317;-77
2024/01/07 00:10:52;;;;;;;0.35;0.25;;;;;;;;;;5047523;28;20140;-77
2024/01/07 00:14:33;;;;;;;1.10;0.35;;;;;;;;;;5030195;28;20057;-76
2024/01/07 00:18:14;;;;;;;0.63;0.40;;;;;;;;;;5031296;28;20068;-76
2024/01/07 00:21:55;;;;;;;0.55;0.47;;;;;;;;;;5034197;28;20132;-77
2024/01/07 00:25:36;;;;;;;0.68;0.52;;;;;;;;;;5024361;28;20487;-78
2024/01/07 00:29:18;;;;;;;1.58;0.55;;;;;;;;;;5040692;28;20053;-77
2024/01/07 00:32:58;;;;;;;0.85;0.60;;;;;;;;;;5032720;28;20398;-77
2024/01/07 00:36:39;;;;;;;0.30;0.30;;;;;;;;;;5024363;28;20103;-78
2024/01/07 00:40:19;;;;;;;0.57;0.52;;;;;;;;;;5024591;28;20392;-79
2024/01/07 00:44:00;;;;;;;1.48;0.50;;;;;;;;;;5027777;28;20049;-79
2024/01/07 00:47:40;;;;;;;0.68;0.40;;;;;;;;;;5031678;28;20096;-79
2024/01/07 00:51:20;;;;;;;1.10;0.30;;;;;;;;;;5035177;28;20053;-79
2024/01/07 00:55:03;;;;;;;1.58;0.35;;;;;;;;;;5030533;28;20092;-80
2024/01/07 00:58:42;;;;;;;1.35;0.50;;;;;;;;;;5033189;28;20041;-78
2024/01/07 01:02:24;;;;;;;0.40;0.40;;;;;;;;;;5018808;28;20128;-78
2024/01/07 01:06:05;;;;;;;1.42;0.50;;;;;;;;;;5033218;28;20046;-78
2024/01/07 01:09:46;;;;;;;0.40;0.40;;;;;;;;;;5031386;28;20525;-80
2024/01/07 01:13:27;;;;;;;2.05;0.45;;;;;;;;;;5035934;28;20072;-79
2024/01/07 01:17:08;;;;;;;1.10;0.30;;;;;;;;;;5035417;28;20049;-80
2024/01/07 01:20:51;;;;;;;0.63;0.45;;;;;;;;;;5037086;28;20487;-81
2024/01/07 01:24:32;;;;;;;0.65;0.40;;;;;;;;;;5030296;28;20041;-79
2024/01/07 01:28:13;;;;;;;0.35;0.30;;;;;;;;;;5041483;28;20155;-80
2024/01/07 01:31:57;;;;;;;0.40;0.40;;;;;;;;;;5033277;28;20052;-77
2024/01/07 01:35:37;;;;;;;0.82;0.47;;;;;;;;;;5040880;28;20060;-79
2024/01/07 01:39:19;;;;;;;0.20;0.20;;;;;;;;;;5037690;28;20368;-82
2024/01/07 01:42:59;;;;;;;0.60;0.50;;;;;;;;;;5033510;28;20081;-78
2024/01/07 01:46:41;;;;;;;0.30;0.30;;;;;;;;;;5033016;28;20492;-80
2024/01/07 01:50:25;;;;;;;0.75;0.38;;;;;;;;;;5013146;28;20052;-78
2024/01/07 01:54:06;;;;;;;0.85;0.63;;;;;;;;;;5012432;28;20169;-80
2024/01/07 01:57:47;;;;;;;1.52;0.85;;;;;;;;;;5025693;28;20454;-77
2024/01/07 02:01:28;;;;;;;0.43;0.40;;;;;;;;;;5025377;28;20038;-78
2024/01/07 02:05:09;;;;;;;0.30;0.30;;;;;;;;;;5024231;28;20045;-77
2024/01/07 02:08:49;;;;;;;0.25;0.22;;;;;;;;;;5021862;28;20077;-76
2024/01/07 02:12:23;;;;;;;0.20;0.20;;;;;;;;;;5034879;28;20088;-79
2024/01/07 02:16:04;;;;;;;0.85;0.45;;;;;;;;;;5019417;28;20095;-78
2024/01/07 02:19:46;;;;;;;2.22;0.50;;;;;;;;;;5025975;28;20041;-77
2024/01/07 02:23:28;;;;;;;1.17;0.45;;;;;;;;;;5023641;28;20076;-80
2024/01/07 02:27:10;;;;;;;0.98;0.50;;;;;;;;;;5028662;28;20105;-79
2024/01/07 02:30:53;;;;;;;2.65;0.40;;;;;;;;;;5026671;28;20415;-77
2024/01/07 02:34:33;;;;;;;1.70;0.45;;;;;;;;;;5024549;28;20049;-77
2024/01/07 02:38:14;;;;;;;2.20;0.40;;;;;;;;;;5027387;28;20080;-77
2024/01/07 02:41:54;;;;;;;1.10;0.38;;;;;;;;;;5024918;28;20053;-77
2024/01/07 02:45:36;;;;;;;0.30;0.30;;;;;;;;;;5028060;28;20040;-77
2024/01/07 02:49:17;;;;;;;1.63;0.40;;;;;;;;;;5027407;28;20048;-78
2024/01/07 02:53:01;;;;;;;0.60;0.30;;;;;;;;;;5028730;28;20528;-75
2024/01/07 02:56:41;;;;;;;0.52;0.38;;;;;;;;;;5028657;28;20049;-77
2024/01/07 03:00:22;;;;;;;0.30;0.30;;;;;;;;;;5026461;28;20045;-76
2024/01/07 03:04:02;;;;;;;0.38;0.30;;;;;;;;;;5026881;28;20124;-75
2024/01/07 03:07:43;;;;;;;0.52;0.30;;;;;;;;;;5026311;28;20084;-76
2024/01/07 03:11:26;;;;;;;0.40;0.40;;;;;;;;;;5023726;28;20053;-76
2024/01/07 03:15:08;;;;;;;0.20;0.20;;;;;;;;;;5027330;28;20164;-75
2024/01/07 03:18:47;;;;;;;0.90;0.38;;;;;;;;;;5020054;28;20133;-77
2024/01/07 03:22:27;;;;;;;0.57;0.38;;;;;;;;;;5027777;28;20041;-77
2024/01/07 03:26:09;;;;;;;0.80;0.50;;;;;;;;;;5025963;28;20076;-76
2024/01/07 03:29:53;;;;;;;0.40;0.40;;;;;;;;;;5025038;28;20056;-76
2024/01/07 03:33:35;;;;;;;2.40;0.60;;;;;;;;;;5029041;28;20583;-77
2024/01/07 03:37:17;;;;;;;0.35;0.30;;;;;;;;;;5021299;28;20108;-74
2024/01/07 03:40:55;;;;;;;0.30;0.30;;;;;;;;;;5025593;28;20041;-78
2024/01/07 03:44:36;;;;;;;1.15;0.40;;;;;;;;;;5022409;28;20041;-77
2024/01/07 03:48:16;;;;;;;1.25;0.55;;;;;;;;;;5021195;28;20069;-76
2024/01/07 03:51:57;;;;;;;0.82;0.47;;;;;;;;;;5027175;28;20410;-76
2024/01/07 03:55:37;;;;;;;0.45;0.30;;;;;;;;;;5026044;28;20046;-77
2024/01/07 03:59:18;;;;;;;0.45;0.38;;;;;;;;;;5022084;28;20049;-77
2024/01/07 04:02:58;;;;;;;0.73;0.47;;;;;;;;;;5021796;28;20235;-76
2024/01/07 04:06:38;;;;;;;0.98;0.50;;;;;;;;;;5024037;28;20124;-78
2024/01/07 04:10:24;;;;;;;1.38;0.43;;;;;;;;;;5022842;28;20045;-76
2024/01/07 04:14:05;;;;;;;0.55;0.50;;;;;;;;;;5025738;28;20080;-79
2024/01/07 04:17:45;;;;;;;1.08;0.57;;;;;;;;;;5024788;28;20037;-76
2024/01/07 04:21:27;;;;;;;1.65;0.45;;;;;;;;;;5026962;28;20053;-76
2024/01/07 04:25:10;;;;;;;0.73;0.40;;;;;;;;;;5020483;28;20052;-76
2024/01/07 04:28:56;;;;;;;0.68;0.55;;;;;;;;;;5023065;28;20088;-75
2024/01/07 04:32:39;;;;;;;1.27;0.40;;;;;;;;;;5022894;28;20056;-76
2024/01/07 04:36:21;;;;;;;0.43;0.30;;;;;;;;;;5024019;28;20087;-76
2024/01/07 04:40:05;;;;;;;1.25;0.65;;;;;;;;;;5029494;28;20073;-76
2024/01/07 04:43:46;;;;;;;1.50;0.30;;;;;;;;;;5023319;28;20043;-75
2024/01/07 04:47:27;;;;;;;0.30;0.30;;;;;;;;;;5030900;28;20097;-75
2024/01/07 04:51:07;;;;;;;0.52;0.50;;;;;;;;;;5032125;28;20057;-77
2024/01/07 04:54:47;;;;;;;0.47;0.40;;;;;;;;;;5024724;28;20041;-74
2024/01/07 04:58:29;;;;;;;0.43;0.30;;;;;;;;;;5027298;28;20411;-75
2024/01/07 05:02:10;;;;;;;2.17;0.30;;;;;;;;;;5035214;28;20087;-78
2024/01/07 05:05:51;;;;;;;0.30;0.30;;;;;;;;;;5028360;28;20455;-76
2024/01/07 05:09:31;;;;;;;0.93;0.40;;;;;;;;;;5027740;28;20049;-77
2024/01/07 05:13:11;;;;;;;0.30;0.30;;;;;;;;;;5039769;28;20037;-77
2024/01/07 05:16:59;;;;;;;0.40;0.40;;;;;;;;;;5038482;28;20099;-75
2024/01/07 05:20:40;;;;;;;0.60;0.40;;;;;;;;;;5035575;28;20513;-78
2024/01/07 05:24:22;;;;;;;0.45;0.35;;;;;;;;;;5029850;28;20179;-79
2024/01/07 05:28:06;;;;;;;0.47;0.40;;;;;;;;;;5029255;28;20145;-78
2024/01/07 05:31:46;;;;;;;2.08;0.50;;;;;;;;;;5022641;28;20103;-78
2024/01/07 05:35:33;;;;;;;0.40;0.32;;;;;;;;;;5027924;28;20136;-75
2024/01/07 05:38:54;;;;;;;;;;;;;;;;;;5028230;28;20048;-75
2024/01/07 05:42:34;;;;;;;1.65;0.45;;;;;;;;;;5024300;28;19931;-77
2024/01/07 05:46:17;;;;;;;0.38;0.38;;;;;;;;;;5026340;28;20072;-76
2024/01/07 05:49:58;;;;;;;0.85;0.43;;;;;;;;;;5028347;28;20094;-77
2024/01/07 05:53:41;;;;;;;1.85;0.40;;;;;;;;;;5038136;28;20521;-76
2024/01/07 05:57:21;;;;;;;0.85;0.40;;;;;;;;;;5031468;28;20044;-78
2024/01/07 06:01:02;;;;;;;0.40;0.40;;;;;;;;;;5023181;28;20565;-77
2024/01/07 06:04:43;;;;;;;1.05;0.50;;;;;;;;;;5036180;28;20121;-78
2024/01/07 06:08:26;;;;;;;0.70;0.50;;;;;;;;;;5027731;28;20126;-78
2024/01/07 06:12:08;;;;;;;1.15;0.35;;;;;;;;;;5024614;28;20045;-77
2024/01/07 06:15:49;;;;;;;1.40;0.40;;;;;;;;;;5030347;28;20139;-77
2024/01/07 06:19:30;;;;;;;2.80;0.43;;;;;;;;;;5038519;28;20049;-76
2024/01/07 06:23:11;;;;;;;1.02;0.40;;;;;;;;;;5040994;28;20381;-76
2024/01/07 06:26:51;;;;;;;1.00;0.38;;;;;;;;;;5027024;28;20070;-77
2024/01/07 06:30:32;;;;;;;0.55;0.30;;;;;;;;;;5032124;28;20053;-77
2024/01/07 06:34:16;;;;;;;1.13;0.60;;;;;;;;;;5038416;28;20048;-76
2024/01/07 06:37:58;;;;;;;1.10;0.40;;;;;;;;;;5031905;28;20057;-79
2024/01/07 06:41:56;;;;;;;1.95;0.40;;;;;;;;;;5027836;28;20058;-77
2024/01/07 06:45:38;;;;;;;1.45;0.35;;;;;;;;;;5039478;28;20445;-75
2024/01/07 06:49:19;;;;;;;0.98;0.50;;;;;;;;;;5031820;28;20532;-77
2024/01/07 06:53:00;;;;;;;1.02;0.40;;;;;;;;;;5031861;28;20495;-75
2024/01/07 06:56:42;;;;;;;0.50;0.40;;;;;;;;;;5028379;28;20073;-78
2024/01/07 07:00:23;;;;;;;0.95;0.50;;;;;;;;;;5034678;28;20059;-80
2024/01/07 07:04:04;;;;;;;1.50;0.40;;;;;;;;;;5019028;28;20068;-76
2024/01/07 07:07:45;;;;;;;2.17;0.30;;;;;;;;;;5026283;28;20049;-77
2024/01/07 07:11:25;;;;;;;0.57;0.50;;;;;;;;;;5029929;28;20060;-75
2024/01/07 07:15:09;;;;;;;1.38;0.40;;;;;;;;;;5028963;28;20037;-77
2024/01/07 07:18:49;;;;;;;0.88;0.52;;;;;;;;;;5028135;28;20455;-79
2024/01/07 07:22:29;;;;;;;0.93;0.52;;;;;;;;;;5031246;28;20057;-77
2024/01/07 07:26:10;;;;;;;1.35;0.47;;;;;;;;;;5037410;28;20061;-76
2024/01/07 07:29:50;;;;;;;1.85;0.40;;;;;;;;;;5033162;28;20041;-76
2024/01/07 07:33:30;;;;;;;1.30;0.60;;;;;;;;;;5033374;28;20466;-77
2024/01/07 07:37:17;;;;;;;1.75;0.68;;;;;;;;;;5032375;28;20048;-76
2024/01/07 07:41:04;;;;;;;0.32;0.32;;;;;;;;;;5026188;28;20052;-78
2024/01/07 07:44:48;;;;;;;0.65;0.50;;;;;;;;;;5021346;28;20400;-73
2024/01/07 07:48:35;;;;;;;3.80;0.50;;;;;;;;;;5026401;28;20061;-75
2024/01/07 07:52:21;;;;;;;1.20;0.40;;;;;;;;;;5019593;28;20277;-74
2024/01/07 07:56:04;;;;;;;0.60;0.35;;;;;;;;;;5008146;28;20809;-76
2024/01/07 07:59:50;;;;;;;2.22;0.40;;;;;;;;;;5016059;28;20341;-76
2024/01/07 08:03:31;;;;;;;0.50;0.40;;;;;;;;;;5025434;28;20116;-73
2024/01/07 08:07:13;;;;;;;1.02;0.47;;;;;;;;;;5033715;28;20053;-73
2024/01/07 08:10:56;;;;;;;1.45;0.38;;;;;;;;;;5030794;28;20060;-72
2024/01/07 08:14:42;;;;;;;2.88;0.65;;;;;;;;;;5025446;28;20072;-73
2024/01/07 08:18:28;;;;;;;1.17;0.55;;;;;;;;;;5013437;28;20114;-74
2024/01/07 08:22:14;;;;;;;1.50;0.60;;;;;;;;;;5031492;28;20045;-78
2024/01/07 08:25:57;;;;;;;1.48;0.50;;;;;;;;;;5029959;28;20119;-77
2024/01/07 08:29:39;;;;;;;1.10;0.40;;;;;;;;;;5026593;28;20148;-78
2024/01/07 08:33:19;;;;;;;1.40;0.52;;;;;;;;;;5027890;28;20052;-74
2024/01/07 08:37:02;;;;;;;1.38;0.80;;;;;;;;;;5026332;28;20077;-79
2024/01/07 08:40:44;;;;;;;0.50;0.40;;;;;;;;;;5029741;28;20045;-74
2024/01/07 08:44:26;;;;;;;3.90;0.60;;;;;;;;;;5024733;28;20041;-77
2024/01/07 08:48:09;;;;;;;1.90;0.60;;;;;;;;;;5027410;28;20582;-75
2024/01/07 08:51:51;;;;;;;4.47;1.00;;;;;;;;;;5026408;28;20456;-77
2024/01/07 08:55:33;;;;;;;2.17;1.10;;;;;;;;;;5022406;28;20053;-81
2024/01/07 08:59:13;;;;;;;2.97;1.10;;;;;;;;;;5025777;28;20053;-76
2024/01/07 09:02:55;;;;;;;1.63;0.85;;;;;;;;;;5030068;28;20718;-76
2024/01/07 09:06:36;;;;;;;0.88;0.70;;;;;;;;;;5024558;28;20068;-75
2024/01/07 09:10:18;;;;;;;4.30;1.00;;;;;;;;;;5029190;28;20049;-76
2024/01/07 09:13:59;;;;;;;0.98;0.50;;;;;;;;;;5022056;28;20065;-76
2024/01/07 09:17:39;;;;;;;2.55;0.50;;;;;;;;;;5029868;28;20140;-76
2024/01/07 09:21:19;;;;;;;2.33;0.50;;;;;;;;;;5023437;28;20529;-75
2024/01/07 09:25:03;;;;;;;3.08;0.65;;;;;;;;;;5032438;28;20067;-74
2024/01/07 09:28:44;;;;;;;2.08;0.50;;;;;;;;;;5022639;28;20124;-73
2024/01/07 09:32:26;;;;;;;4.60;1.08;;;;;;;;;;5028110;28;20479;-73
2024/01/07 09:36:10;;;;;;;1.85;0.55;;;;;;;;;;5031696;28;20500;-70
2024/01/07 09:39:51;;;;;;;1.42;0.60;;;;;;;;;;5032520;28;20041;-72
2024/01/07 09:43:31;;;;;;;1.55;0.82;;;;;;;;;;5028684;28;20080;-72
2024/01/07 09:47:15;;;;;;;3.13;1.00;;;;;;;;;;5035303;28;20049;-76
2024/01/07 09:51:02;;;;;;;5.35;0.60;;;;;;;;;;5026989;28;20068;-75
2024/01/07 09:54:46;;;;;;;1.15;0.60;;;;;;;;;;5023284;28;20478;-74
2024/01/07 09:58:26;;;;;;;1.27;0.60;;;;;;;;;;5016626;28;20102;-76
2024/01/07 10:02:09;;;;;;;0.85;0.60;;;;;;;;;;5029350;28;20087;-76
2024/01/07 10:05:49;;;;;;;0.43;0.40;;;;;;;;;;5029667;28;20060;-76
2024/01/07 10:09:29;;;;;;;2.05;0.70;;;;;;;;;;5027722;28;20176;-74
2024/01/07 10:13:11;;;;;;;5.13;0.80;;;;;;;;;;5019428;28;20052;-72
2024/01/07 10:16:59;;;;;;;1.73;0.43;;;;;;;;;;5015747;28;20042;-77
2024/01/07 10:20:40;;;;;;;1.38;0.57;;;;;;;;;;5027747;28;20116;-73
2024/01/07 10:24:20;;;;;;;2.33;0.50;;;;;;;;;;5031866;28;20840;-72
2024/01/07 10:28:02;;;;;;;5.55;0.90;;;;;;;;;;5024080;28;20052;-76
2024/01/07 10:31:43;;;;;;;0.93;0.70;;;;;;;;;;5022604;28;20053;-74
2024/01/07 10:35:23;;;;;;;1.58;0.70;;;;;;;;;;5023983;28;20041;-74
2024/01/07 10:39:03;;;;;;;3.97;0.50;;;;;;;;;;5017993;28;20037;-72
2024/01/07 10:42:44;;;;;;;1.17;0.52;;;;;;;;;;5028786;28;20147;-71
2024/01/07 10:46:26;;;;;;;1.13;0.47;;;;;;;;;;5025612;28;20046;-70
2024/01/07 10:50:13;;;;;;;0.80;0.50;;;;;;;;;;5103393;27;20403;-70
2024/01/07 10:53:54;;;;;;;4.47;0.73;;;;;;;;;;5084125;28;20046;-70
2024/01/07 10:57:49;;;;;;;0.57;0.40;;;;;;;;;;5086050;28;20551;-71
2024/01/07 11:01:29;;;;;;;0.88;0.50;;;;;;;;;;5086338;28;20994;-69
2024/01/07 11:04:58;;;;;;;1.65;0.60;;;;;;;;;;5082168;28;20039;-69
2024/01/07 11:08:41;;;;;;;2.15;0.80;;;;;;;;;;5078758;28;20493;-70
2024/01/07 11:12:27;;;;;;;1.17;0.73;;;;;;;;;;5082137;28;20105;-71
2024/01/07 11:16:24;;;;;;;2.97;0.82;;;;;;;;;;5078849;28;20074;-69
2024/01/07 11:20:05;;;;;;;1.52;0.82;;;;;;;;;;5013145;28;20034;-70
2024/01/07 11:23:49;;;;;;;0.85;0.43;;;;;;;;;;5013711;28;20145;-72
2024/01/07 11:27:31;;;;;;;0.85;0.50;;;;;;;;;;5013403;28;20042;-71
2024/01/07 11:31:12;;;;;;;2.05;0.70;;;;;;;;;;5015948;28;20176;-72
2024/01/07 11:35:00;;;;;;;4.70;0.70;;;;;;;;;;5014273;28;20452;-75
2024/01/07 11:38:42;;;;;;;0.73;0.65;;;;;;;;;;5014061;28;20148;-69
2024/01/07 11:42:23;;;;;;;1.85;0.60;;;;;;;;;;5021650;28;20045;-70
2024/01/07 11:46:07;;;;;;;3.80;0.80;;;;;;;;;;5013035;28;20064;-72
2024/01/07 11:49:49;;;;;;;0.93;0.68;;;;;;;;;;5022728;28;20140;-71
2024/01/07 11:53:31;;;;;;;1.42;0.60;;;;;;;;;;5056881;28;20036;-72
2024/01/07 11:57:13;;;;;;;1.83;0.73;;;;;;;;;;5083948;28;20404;-73
2024/01/07 12:00:53;;;;;;;0.45;0.43;;;;;;;;;;5067652;28;20101;-72
2024/01/07 12:04:34;;;;;;;3.67;0.80;;;;;;;;;;5070058;28;20182;-72
2024/01/07 12:08:20;;;;;;;1.05;0.68;;;;;;;;;;5062951;28;20032;-71
2024/01/07 12:12:01;;;;;;;1.40;0.50;;;;;;;;;;5063484;28;20052;-69
2024/01/07 12:15:44;;;;;;;2.70;0.82;;;;;;;;;;5067442;28;20043;-71
2024/01/07 12:19:25;;;;;;;3.38;0.63;;;;;;;;;;5066514;28;20116;-72
2024/01/07 12:23:08;;;;;;;1.55;0.65;;;;;;;;;;5062633;28;20040;-69
2024/01/07 12:26:48;;;;;;;3.97;0.80;;;;;;;;;;5067061;28;20109;-69
2024/01/07 12:30:30;;;;;;;2.70;0.63;;;;;;;;;;5056971;28;20471;-69
2024/01/07 12:34:11;;;;;;;5.10;0.60;;;;;;;;;;5064941;28;20049;-74
2024/01/07 12:37:56;;;;;;;2.17;0.70;;;;;;;;;;5065203;28;20049;-69
2024/01/07 12:41:37;;;;;;;2.30;0.57;;;;;;;;;;5063465;28;20054;-75
2024/01/07 12:45:22;;;;;;;4.57;0.73;;;;;;;;;;5062460;28;20044;-70
2024/01/07 12:49:02;;;;;;;2.10;1.08;;;;;;;;;;5065768;28;20412;-71
2024/01/07 12:52:44;;;;;;;1.65;0.60;;;;;;;;;;5071038;28;20563;-70
2024/01/07 12:56:26;;;;;;;1.17;0.45;;;;;;;;;;5071518;28;20404;-74
2024/01/07 13:00:09;;;;;;;3.83;0.90;;;;;;;;;;5063195;28;20436;-73
2024/01/07 13:03:50;;;;;;;1.17;0.80;;;;;;;;;;5073125;28;20715;-72
2024/01/07 13:07:31;;;;;;;2.35;1.00;;;;;;;;;;5073403;28;20043;-68
2024/01/07 13:11:15;;;;;;;0.77;0.77;;;;;;;;;;5076806;28;20052;-66
2024/01/07 13:14:54;;;;;;;1.92;0.73;;;;;;;;;;5068503;28;20040;-70
2024/01/07 13:18:34;;;;;;;3.13;0.80;;;;;;;;;;5068441;28;20041;-68
2024/01/07 13:22:15;;;;;;;1.75;0.65;;;;;;;;;;5064095;28;20078;-69
2024/01/07 13:25:57;;;;;;;1.35;0.80;;;;;;;;;;5056171;28;20481;-69
2024/01/07 13:29:38;;;;;;;0.82;0.60;;;;;;;;;;5066777;28;20474;-68
2024/01/07 13:33:19;;;;;;;1.25;0.90;;;;;;;;;;5062735;28;20040;-69
2024/01/07 13:37:03;;;;;;;1.85;0.82;;;;;;;;;;5063858;28;20033;-68
2024/01/07 13:40:42;;;;;;;8.50;0.80;;;;;;;;;;5067938;28;20121;-67
2024/01/07 13:44:23;;;;;;;1.30;0.73;;;;;;;;;;5060496;28;20464;-67
2024/01/07 13:48:06;;;;;;;0.73;0.57;;;;;;;;;;5063465;28;20052;-71
2024/01/07 13:51:45;;;;;;;2.97;0.65;;;;;;;;;;5067554;28;20048;-66
2024/01/07 13:55:27;;;;;;;1.20;0.70;;;;;;;;;;5060887;28;20044;-67
2024/01/07 13:59:07;;;;;;;1.17;0.60;;;;;;;;;;5054730;28;20446;-67
2024/01/07 14:02:48;;;;;;;1.45;0.80;;;;;;;;;;5056480;28;21366;-64
2024/01/07 14:06:28;;;;;;;1.45;0.82;;;;;;;;;;5065504;28;20052;-65
2024/01/07 14:10:11;;;;;;;4.10;0.85;;;;;;;;;;5065394;28;20202;-67
2024/01/07 14:13:51;;;;;;;1.52;0.80;;;;;;;;;;5062529;28;20135;-66
2024/01/07 14:17:32;;;;;;;2.58;0.80;;;;;;;;;;5063168;28;20053;-66
2024/01/07 14:21:13;;;;;;;2.70;0.60;;;;;;;;;;5066058;28;20123;-67
2024/01/07 14:24:54;;;;;;;1.35;0.75;;;;;;;;;;5065007;28;20036;-68
2024/01/07 14:28:35;;;;;;;5.95;1.05;;;;;;;;;;5060967;28;20043;-66
2024/01/07 14:32:16;;;;;;;1.20;0.47;;;;;;;;;;5067538;28;20045;-67
2024/01/07 14:35:59;;;;;;;1.70;0.60;;;;;;;;;;5062184;28;20105;-68
2024/01/07 14:39:40;;;;;;;1.00;0.63;;;;;;;;;;5065875;28;20052;-66
2024/01/07 14:43:24;;;;;;;2.17;0.65;;;;;;;;;;5059061;28;20136;-65
2024/01/07 14:47:04;;;;;;;2.25;0.65;;;;;;;;;;5067555;28;20762;-67
2024/01/07 14:50:47;;;;;;;0.25;0.25;;;;;;;;;;5066041;28;20367;-66
2024/01/07 14:54:25;;;;;;;4.28;0.70;;;;;;;;;;5069700;28;20491;-67
2024/01/07 14:58:07;;;;;;;5.25;0.90;;;;;;;;;;5073169;28;20100;-66
2024/01/07 15:01:51;;;;;;;0.50;0.47;;;;;;;;;;5063221;28;20044;-68
2024/01/07 15:05:30;;;;;;;1.33;0.57;;;;;;;;;;5061450;28;20051;-65
2024/01/07 15:09:11;;;;;;;1.23;0.40;;;;;;;;;;5070104;28;20092;-68
2024/01/07 15:12:51;;;;;;;1.25;0.80;;;;;;;;;;5062475;28;20037;-66
2024/01/07 15:16:33;;;;;;;1.38;0.40;;;;;;;;;;5065066;28;20045;-70
2024/01/07 15:20:13;;;;;;;0.88;0.40;;;;;;;;;;5066506;28;20044;-67
2024/01/07 15:23:53;;;;;;;0.70;0.65;;;;;;;;;;5061731;28;20060;-67
2024/01/07 15:27:34;;;;;;;0.95;0.60;;;;;;;;;;5068932;28;20497;-73
2024/01/07 15:31:15;;;;;;;0.77;0.50;;;;;;;;;;5072063;28;20044;-65
2024/01/07 15:34:56;;;;;;;1.90;0.60;;;;;;;;;;5060961;28;20045;-68
2024/01/07 15:38:36;;;;;;;0.32;0.32;;;;;;;;;;5065673;28;20045;-69
2024/01/07 15:42:16;;;;;;;0.50;0.30;;;;;;;;;;5068483;28;20115;-67
2024/01/07 15:45:57;;;;;;;0.40;0.40;;;;;;;;;;5070534;28;20048;-67
2024/01/07 15:49:37;;;;;;;1.33;0.63;;;;;;;;;;5070360;28;20048;-66
2024/01/07 15:53:18;;;;;;;2.33;0.80;;;;;;;;;;5063546;28;20380;-68
2024/01/07 15:56:58;;;;;;;1.73;0.55;;;;;;;;;;5086049;28;20048;-68
2024/01/07 16:00:41;;;;;;;1.48;0.30;;;;;;;;;;5072181;28;20111;-69
2024/01/07 16:04:21;;;;;;;0.80;0.40;;;;;;;;;;5068232;28;20053;-71
2024/01/07 16:08:02;;;;;;;1.45;0.40;;;;;;;;;;5068198;28;20045;-67
2024/01/07 16:11:44;;;;;;;2.17;0.40;;;;;;;;;;5063313;28;20109;-69
2024/01/07 16:15:26;;;;;;;3.08;0.50;;;;;;;;;;5068516;27;20102;-70
2024/01/07 16:19:04;;;;;;;0.88;0.50;;;;;;;;;;5063813;28;20093;-70
2024/01/07 16:22:47;;;;;;;1.17;0.52;;;;;;;;;;5061140;28;20048;-70
2024/01/07 16:26:28;;;;;;;1.63;0.50;;;;;;;;;;5064525;28;20053;-69
2024/01/07 16:30:14;;;;;;;1.13;0.70;;;;;;;;;;5064639;28;20044;-72
2024/01/07 16:33:57;;;;;;;0.65;0.60;;;;;;;;;;5064409;28;20043;-73
2024/01/07 16:37:37;;;;;;;0.75;0.57;;;;;;;;;;5064604;28;20040;-72
2024/01/07 16:41:17;;;;;;;0.90;0.60;;;;;;;;;;5065537;28;20044;-70
2024/01/07 16:45:01;;;;;;;2.80;0.65;;;;;;;;;;5051811;28;20049;-70
2024/01/07 16:48:42;;;;;;;0.80;0.70;;;;;;;;;;5069272;28;20060;-71
2024/01/07 16:52:23;;;;;;;0.80;0.68;;;;;;;;;;5062926;28;20056;-71
2024/01/07 16:56:06;;;;;;;0.70;0.60;;;;;;;;;;5069870;28;20519;-71
2024/01/07 16:59:47;;;;;;;1.95;0.80;;;;;;;;;;5061227;28;20055;-71
2024/01/07 17:03:28;;;;;;;0.50;0.50;;;;;;;;;;5069299;28;20123;-70
2024/01/07 17:07:11;;;;;;;1.90;1.00;;;;;;;;;;5065997;28;20059;-70
2024/01/07 17:10:53;;;;;;;0.88;0.68;;;;;;;;;;5066978;28;20323;-72
2024/01/07 17:14:36;;;;;;;2.28;0.70;;;;;;;;;;5065438;28;20404;-73
2024/01/07 17:18:16;;;;;;;2.70;0.80;;;;;;;;;;5060192;28;20059;-72
2024/01/07 17:21:57;;;;;;;1.40;0.90;;;;;;;;;;5062024;28;20044;-72
2024/01/07 17:25:42;;;;;;;4.05;1.42;;;;;;;;;;5067806;28;20216;-70
2024/01/07 17:29:25;;;;;;;2.42;1.27;;;;;;;;;;5060544;28;20044;-71
2024/01/07 17:33:10;;;;;;;2.22;1.02;;;;;;;;;;5061074;28;20101;-70
2024/01/07 17:36:54;;;;;;;2.50;0.90;;;;;;;;;;5064377;28;20044;-70
2024/01/07 17:40:36;;;;;;;3.20;1.10;;;;;;;;;;5063836;28;20083;-70
2024/01/07 17:44:16;;;;;;;1.85;1.20;;;;;;;;;;5068663;28;20041;-72
2024/01/07 17:48:03;;;;;;;0.90;0.80;;;;;;;;;;5064236;28;20565;-73
2024/01/07 17:51:44;;;;;;;2.83;1.15;;;;;;;;;;5069329;28;20060;-72
2024/01/07 17:55:24;;;;;;;1.60;1.10;;;;;;;;;;5060279;28;22560;-71
2024/01/07 17:59:07;;;;;;;3.13;1.48;;;;;;;;;;5061195;28;20138;-71
2024/01/07 18:02:46;;;;;;;3.33;1.40;;;;;;;;;;5058586;28;20123;-70
2024/01/07 18:06:28;;;;;;;5.78;1.63;;;;;;;;;;5062436;28;20091;-70
2024/01/07 18:10:10;;;;;;;2.53;1.20;;;;;;;;;;5064928;28;20068;-70
2024/01/07 18:13:51;;;;;;;2.67;1.40;;;;;;;;;;5060235;28;20328;-68
2024/01/07 18:17:40;;;;;;;1.48;0.93;;;;;;;;;;5064175;28;20090;-70
2024/01/07 18:21:17;;;;;;;2.47;0.90;;;;;;;;;;5062944;28;20108;-69
2024/01/07 18:24:57;;;;;;;1.98;1.10;;;;;;;;;;5061596;28;20550;-70
2024/01/07 18:28:37;;;;;;;2.63;1.13;;;;;;;;;;5057766;28;20063;-70
2024/01/07 18:32:18;;;;;;;3.40;1.30;;;;;;;;;;5059595;28;20086;-71
2024/01/07 18:36:00;;;;;;;3.08;1.35;;;;;;;;;;5061696;28;20366;-72
2024/01/07 18:39:39;;;;;;;2.97;1.42;;;;;;;;;;5064033;28;20123;-70
2024/01/07 18:43:20;;;;;;;2.75;1.40;;;;;;;;;;5062477;28;20103;-70
2024/01/07 18:47:01;;;;;;;3.35;1.75;;;;;;;;;;5062358;28;20044;-70
2024/01/07 18:50:42;;;;;;;3.30;1.50;;;;;;;;;;5058115;28;20341;-71
2024/01/07 18:54:26;;;;;;;4.32;1.40;;;;;;;;;;5060334;28;20133;-72
2024/01/07 18:58:05;;;;;;;3.42;1.20;;;;;;;;;;5061813;28;20140;-68
2024/01/07 19:01:45;;;;;;;3.35;1.10;;;;;;;;;;5060799;28;20155;-69
2024/01/07 19:05:27;;;;;;;2.40;1.20;;;;;;;;;;5059898;28;20427;-73
2024/01/07 19:09:09;;;;;;;3.95;1.50;;;;;;;;;;5057704;28;20049;-71
2024/01/07 19:12:52;;;;;;;2.80;1.38;;;;;;;;;;5062938;28;20139;-71
2024/01/07 19:16:32;;;;;;;4.70;1.55;;;;;;;;;;5061158;28;20928;-72
2024/01/07 19:19:36;;;;;;;2.88;1.02;;;;;;;;;;5059973;28;20040;-71
2024/01/07 19:22:08;;;;;;;2.35;0.93;;;;;;;;;;5061052;28;20049;-72
2024/01/07 19:25:14;;;;;;;1.65;0.90;;;;;;;;;;5060217;28;20051;-71
2024/01/07 19:28:54;;;;;;;4.35;1.20;;;;;;;;;;5063374;28;20376;-71
2024/01/07 19:32:34;;;;;;;7.00;1.55;;;;;;;;;;5067014;28;20120;-71
2024/01/07 19:36:15;;;;;;;2.60;1.10;;;;;;;;;;5065752;28;20540;-69
2024/01/07 19:39:57;;;;;;;2.95;1.20;;;;;;;;;;5068283;28;20048;-72
2024/01/07 19:43:37;;;;;;;3.42;1.20;;;;;;;;;;5065050;28;20140;-71
2024/01/07 19:47:17;;;;;;;2.28;1.20;;;;;;;;;;5067022;28;20420;-71
2024/01/07 19:50:58;;;;;;;1.30;0.90;;;;;;;;;;5066664;28;20070;-72
2024/01/07 19:54:38;;;;;;;2.03;1.00;;;;;;;;;;5066019;28;20060;-72
2024/01/07 19:58:20;;;;;;;1.55;1.00;;;;;;;;;;5067491;28;20571;-71
2024/01/07 20:02:00;;;;;;;2.50;1.10;;;;;;;;;;5065192;28;20048;-74
2024/01/07 20:05:42;;;;;;;2.80;1.40;;;;;;;;;;5066870;28;20045;-73
2024/01/07 20:09:23;;;;;;;1.85;1.25;;;;;;;;;;5064294;28;20111;-76
2024/01/07 20:13:04;;;;;;;1.80;1.27;;;;;;;;;;5063813;28;20762;-74
2024/01/07 20:16:44;;;;;;;1.73;1.20;;;;;;;;;;5063632;28;20468;-73
2024/01/07 20:20:25;;;;;;;3.08;1.55;;;;;;;;;;5064416;28;20080;-76
2024/01/07 20:24:07;;;;;;;1.15;0.95;;;;;;;;;;5061679;28;20044;-73
2024/01/07 20:27:07;;;;;;;2.38;1.20;;;;;;;;;;5065828;28;20093;-74
2024/01/07 20:29:47;;;;;;;1.98;1.17;;;;;;;;;;5049754;28;20496;-74
2024/01/07 20:32:53;;;;;;;2.35;1.50;;;;;;;;;;5066829;28;20033;-74
2024/01/07 20:36:36;;;;;;;2.17;1.10;;;;;;;;;;5065554;28;20508;-73
2024/01/07 20:40:17;;;;;;;2.30;1.30;;;;;;;;;;5070981;28;20055;-73
2024/01/07 20:43:58;;;;;;;4.70;1.48;;;;;;;;;;5060731;28;20040;-74
2024/01/07 20:47:38;;;;;;;3.08;1.50;;;;;;;;;;5072760;28;20052;-75
2024/01/07 20:51:20;;;;;;;2.30;1.30;;;;;;;;;;5063922;28;20184;-75
2024/01/07 20:55:01;;;;;;;5.07;1.70;;;;;;;;;;5059713;28;20185;-74
2024/01/07 20:58:41;;;;;;;3.78;1.60;;;;;;;;;;5064333;28;20096;-74
2024/01/07 21:02:25;;;;;;;3.08;1.30;;;;;;;;;;5062447;28;20696;-74
2024/01/07 21:06:05;;;;;;;2.75;1.55;;;;;;;;;;5060817;28;20049;-74
2024/01/07 21:09:46;;;;;;;2.60;1.50;;;;;;;;;;5064618;28;20048;-75
2024/01/07 21:13:26;;;;;;;3.47;1.45;;;;;;;;;;5062229;28;20396;-74
2024/01/07 21:17:07;;;;;;;2.10;1.40;;;;;;;;;;5070847;28;20037;-75
2024/01/07 21:20:49;;;;;;;4.97;1.70;;;;;;;;;;5055393;28;20523;-75
2024/01/07 21:24:29;;;;;;;2.33;1.55;;;;;;;;;;5064006;28;20097;-74
2024/01/07 21:28:10;;;;;;;1.95;1.20;;;;;;;;;;5062921;28;20048;-75
2024/01/07 21:31:51;;;;;;;2.05;1.20;;;;;;;;;;5075900;28;20048;-74
2024/01/07 21:35:32;;;;;;;5.43;1.00;;;;;;;;;;5062699;28;20044;-74
2024/01/07 21:39:13;;;;;;;1.00;0.80;;;;;;;;;;5062395;28;20040;-74
2024/01/07 21:42:56;;;;;;;1.77;1.05;;;;;;;;;;5060498;28;20044;-73
2024/01/07 21:46:36;;;;;;;1.63;0.88;;;;;;;;;;5068594;28;20156;-74
2024/01/07 21:50:15;;;;;;;1.80;0.88;;;;;;;;;;5063891;28;20041;-73
2024/01/07 21:53:56;;;;;;;2.10;1.10;;;;;;;;;;5066992;28;20048;-74
2024/01/07 21:57:37;;;;;;;0.57;0.57;;;;;;;;;;5065760;28;20211;-73
2024/01/07 22:01:17;;;;;;;1.70;0.90;;;;;;;;;;5065918;28;20113;-73
2024/01/07 22:04:58;;;;;;;1.83;0.90;;;;;;;;;;5068957;28;20051;-74